createdAt,value
2019-05-10T00:00:28.140Z,93763.09
2019-05-10T00:05:50.705Z,93759.48
2019-05-10T00:11:05.974Z,93746.87
2019-05-10T00:16:12.504Z,93763.13
2019-05-10T00:21:17.082Z,93760.09
2019-05-10T00:26:22.852Z,93752.88
2019-05-10T00:31:27.465Z,93739.09
2019-05-10T00:36:32.121Z,93752.14
2019-05-10T00:41:36.793Z,93746.48
2019-05-10T00:46:41.535Z,93753.34
2019-05-10T00:51:46.098Z,93750.64
2019-05-10T00:56:50.747Z,93759.66
2019-05-10T01:01:55.466Z,93750.41
2019-05-10T01:07:00.209Z,93745.84
2019-05-10T01:12:04.950Z,93747.37
2019-05-10T01:17:09.501Z,93757.20
2019-05-10T01:22:14.208Z,93759.92
2019-05-10T01:27:18.823Z,93757.23
2019-05-10T01:32:23.540Z,93772.18
2019-05-10T01:37:28.192Z,93775.20
2019-05-10T01:42:32.838Z,93769.06
2019-05-10T01:47:37.413Z,93769.02
2019-05-10T01:52:41.998Z,93770.45
2019-05-10T01:57:46.562Z,93774.63
2019-05-10T02:02:51.198Z,93768.75
2019-05-10T02:07:55.763Z,93776.19
2019-05-10T02:13:00.242Z,93786.23
2019-05-10T02:18:05.347Z,93783.25
2019-05-10T02:23:10.019Z,93783.91
2019-05-10T02:28:14.594Z,93781.63
2019-05-10T02:33:19.109Z,93778.34
2019-05-10T02:38:23.671Z,93776.98
2019-05-10T02:43:28.395Z,93783.89
2019-05-10T02:48:33.091Z,93780.20
2019-05-10T02:53:37.594Z,93785.69
2019-05-10T02:58:44.043Z,93787.22
2019-05-10T03:03:50.228Z,93795.45
2019-05-10T03:08:55.002Z,93796.61
2019-05-10T03:14:02.521Z,93799.44
2019-05-10T03:19:08.832Z,93807.27
2019-05-10T03:24:13.743Z,93811.28
2019-05-10T03:29:18.468Z,93802.42
2019-05-10T03:34:23.059Z,93801.48
2019-05-10T03:39:27.980Z,93806.67
2019-05-10T03:44:32.593Z,93805.71
2019-05-10T03:49:37.314Z,93809.27
2019-05-10T03:54:41.993Z,93810.98
2019-05-10T03:59:46.562Z,93813.14
2019-05-10T04:04:51.178Z,93812.35
2019-05-10T04:09:55.790Z,93813.11
2019-05-10T04:15:00.411Z,93839.12
2019-05-10T04:20:09.668Z,93858.42
2019-05-10T04:25:14.582Z,93863.61
2019-05-10T04:30:20.290Z,93863.97
2019-05-10T04:35:24.877Z,93868.80
2019-05-10T04:40:29.491Z,93867.92
2019-05-10T04:45:34.175Z,93903.20
2019-05-10T04:50:38.905Z,93925.17
2019-05-10T04:55:43.594Z,93927.50
2019-05-10T05:00:48.241Z,93922.56
2019-05-10T05:05:52.764Z,93948.08
2019-05-10T05:10:57.852Z,93961.74
2019-05-10T05:16:02.593Z,93950.73
2019-05-10T05:21:07.213Z,93956.45
2019-05-10T05:26:11.729Z,93954.79
2019-05-10T05:31:16.292Z,93946.47
2019-05-10T05:36:20.961Z,93942.09
2019-05-10T05:41:25.655Z,93941.83
2019-05-10T05:46:30.265Z,93942.03
2019-05-10T05:51:34.881Z,93958.61
2019-05-10T05:56:39.458Z,93959.88
2019-05-10T06:01:44.721Z,93963.58
2019-05-10T06:06:53.696Z,93985.21
2019-05-10T06:11:55.949Z,93985.25
2019-05-10T06:17:00.475Z,93980.16
2019-05-10T06:22:07.010Z,93981.04
2019-05-10T06:27:11.438Z,93984.37
2019-05-10T06:32:16.039Z,93985.73
2019-05-10T06:37:20.683Z,93990.91
2019-05-10T06:42:28.879Z,93984.83
2019-05-10T06:47:31.737Z,93993.11
2019-05-10T06:52:36.319Z,93991.19
2019-05-10T06:57:40.876Z,94001.08
2019-05-10T07:02:46.571Z,94007.89
2019-05-10T07:07:51.146Z,94007.75
2019-05-10T07:12:57.026Z,94009.34
2019-05-10T07:18:02.072Z,94018.78
2019-05-10T07:23:07.922Z,94012.31
2019-05-10T07:28:15.781Z,94005.81
2019-05-10T07:33:20.414Z,94017.19
2019-05-10T07:38:30.673Z,94020.20
2019-05-10T07:43:31.241Z,94020.20
2019-05-10T07:48:40.955Z,94029.48
2019-05-10T07:53:42.159Z,94038.47
2019-05-10T07:58:46.794Z,94037.93
2019-05-10T08:03:52.482Z,94043.30
2019-05-10T08:09:01.826Z,94051.77
2019-05-10T08:14:08.925Z,94059.93
2019-05-10T08:19:12.229Z,94069.67
2019-05-10T08:24:16.878Z,94062.20
2019-05-10T08:29:22.526Z,94054.92
2019-05-10T08:34:29.086Z,94061.09
2019-05-10T08:39:43.905Z,94070.38
2019-05-10T08:44:39.792Z,94069.38
2019-05-10T08:49:56.997Z,94072.14
2019-05-10T08:54:55.026Z,94064.55
2019-05-10T09:00:06.981Z,94075.27
2019-05-10T09:05:04.886Z,94086.92
2019-05-10T09:10:09.899Z,94086.61
2019-05-10T09:15:14.854Z,94094.80
2019-05-10T09:20:25.948Z,94093.78
2019-05-10T09:25:29.525Z,94093.33
2019-05-10T09:30:35.493Z,94094.89
2019-05-10T09:35:47.048Z,94094.85
2019-05-10T09:40:53.003Z,94096.02
2019-05-10T09:45:53.939Z,94091.25
2019-05-10T09:51:03.414Z,94094.01
2019-05-10T09:56:05.088Z,94083.78
2019-05-10T10:01:17.802Z,94083.93
2019-05-10T10:06:17.174Z,94083.75
2019-05-10T10:11:21.795Z,94081.78
2019-05-10T10:16:28.202Z,94082.71
2019-05-10T10:21:35.474Z,94083.45
2019-05-10T10:26:39.136Z,94095.09
2019-05-10T10:31:51.523Z,94106.02
2019-05-10T10:36:50.134Z,94096.64
2019-05-10T10:41:56.931Z,94097.97
2019-05-10T10:47:01.350Z,94098.77
2019-05-10T10:52:11.423Z,94103.59
2019-05-10T10:57:12.311Z,94111.00
2019-05-10T11:02:32.112Z,94131.39
2019-05-10T11:07:23.332Z,94133.50
2019-05-10T11:12:28.132Z,94133.13
2019-05-10T11:17:32.709Z,94130.16
2019-05-10T11:22:42.095Z,94131.88
2019-05-10T11:27:47.615Z,94134.90
2019-05-10T11:32:50.151Z,94130.07
2019-05-10T11:37:54.809Z,94121.38
2019-05-10T11:43:01.523Z,94129.64
2019-05-10T11:48:05.865Z,94114.16
2019-05-10T11:53:13.293Z,94115.97
2019-05-10T11:58:16.700Z,94116.73
2019-05-10T12:03:23.502Z,94113.60
2019-05-10T12:08:27.736Z,94106.66
2019-05-10T12:13:32.823Z,94118.17
2019-05-10T12:18:46.309Z,94131.67
2019-05-10T12:23:50.382Z,94131.67
2019-05-10T12:28:51.165Z,94127.62
2019-05-10T12:34:02.531Z,94118.08
2019-05-10T12:39:04.715Z,94132.34
2019-05-10T12:44:11.232Z,94123.27
2019-05-10T12:49:15.851Z,94123.83
2019-05-10T12:54:23.781Z,94123.83
2019-05-10T12:59:29.634Z,94115.58
2019-05-10T13:04:40.578Z,94108.75
2019-05-10T13:09:40.928Z,94104.82
2019-05-10T13:14:49.791Z,94112.87
2019-05-10T13:19:57.794Z,94135.20
2019-05-10T13:24:59.674Z,94125.91
2019-05-10T13:30:05.588Z,94139.83
2019-05-10T13:35:10.494Z,94139.83
2019-05-10T13:40:16.811Z,94138.73
2019-05-10T13:45:21.638Z,94137.46
2019-05-10T13:50:28.100Z,94121.60
2019-05-10T13:55:33.834Z,94147.81
2019-05-10T14:00:38.531Z,94150.84
2019-05-10T14:05:43.312Z,94151.20
2019-05-10T14:10:49.580Z,94152.59
2019-05-10T14:15:54.514Z,94150.36
2019-05-10T14:20:58.972Z,94150.68
2019-05-10T14:26:03.700Z,94150.68
2019-05-10T14:31:08.452Z,94151.84
2019-05-10T14:36:13.093Z,94152.41
2019-05-10T14:41:20.914Z,94148.20
2019-05-10T14:46:25.570Z,94152.92
2019-05-10T14:51:44.171Z,94152.09
2019-05-10T14:56:36.488Z,94152.64
2019-05-10T15:01:43.041Z,94162.11
2019-05-10T15:06:47.277Z,94155.84
2019-05-10T15:11:51.937Z,94155.89
2019-05-10T15:16:56.501Z,94157.09
2019-05-10T15:22:01.089Z,94147.37
2019-05-10T15:27:05.784Z,94140.58
2019-05-10T15:32:10.640Z,94140.27
2019-05-10T15:37:17.595Z,94143.66
2019-05-10T15:42:22.054Z,94128.30
2019-05-10T15:47:26.867Z,94141.09
2019-05-10T15:52:31.576Z,94148.54
2019-05-10T15:57:36.294Z,94139.23
2019-05-10T16:02:40.996Z,94141.41
2019-05-10T16:07:46.569Z,94139.44
2019-05-10T16:12:52.148Z,94139.54
2019-05-10T16:17:59.710Z,94149.02
2019-05-10T16:23:08.767Z,94147.87
2019-05-10T16:28:09.417Z,94155.97
2019-05-10T16:33:15.606Z,94145.39
2019-05-10T16:38:23.098Z,94155.72
2019-05-10T16:43:27.573Z,94153.55
2019-05-10T16:48:32.201Z,94159.36
2019-05-10T16:53:37.792Z,94161.06
2019-05-10T16:58:47.709Z,94161.47
2019-05-10T17:03:51.226Z,94162.67
2019-05-10T17:08:55.839Z,94166.98
2019-05-10T17:14:01.619Z,94172.48
2019-05-10T17:19:06.481Z,94174.05
2019-05-10T17:24:10.985Z,94172.13
2019-05-10T17:29:15.588Z,94180.64
2019-05-10T17:34:27.619Z,94190.61
2019-05-10T17:39:32.379Z,94204.28
2019-05-10T17:44:32.830Z,94207.97
2019-05-10T17:49:37.479Z,94212.95
2019-05-10T17:54:42.161Z,94214.11
2019-05-10T17:59:53.084Z,94214.33
2019-05-10T18:04:53.841Z,94224.48
2019-05-10T18:09:58.430Z,94220.89
2019-05-10T18:15:04.983Z,94226.08
2019-05-10T18:20:10.486Z,94233.81
2019-05-10T18:25:20.401Z,94237.27
2019-05-10T18:30:22.401Z,94243.78
2019-05-10T18:35:27.143Z,94248.70
2019-05-10T18:40:32.190Z,94248.44
2019-05-10T18:45:39.001Z,94256.77
2019-05-10T18:50:45.133Z,94267.17
2019-05-10T18:55:49.943Z,94273.47
2019-05-10T19:00:56.133Z,94273.47
2019-05-10T19:06:04.046Z,94276.03
2019-05-10T19:11:07.381Z,94285.41
2019-05-10T19:16:12.560Z,94284.32
2019-05-10T19:21:17.238Z,94288.66
2019-05-10T19:26:23.772Z,94293.91
2019-05-10T19:31:31.675Z,94291.34
2019-05-10T19:36:35.706Z,94295.04
2019-05-10T19:42:04.427Z,94298.00
2019-05-10T19:47:15.317Z,94299.84
2019-05-10T19:52:14.309Z,94297.44
2019-05-10T19:57:19.068Z,94298.63
2019-05-10T20:02:23.684Z,94296.44
2019-05-10T20:07:44.066Z,94301.92
2019-05-10T20:12:53.861Z,94299.30
2019-05-10T20:17:58.576Z,94300.03
2019-05-10T20:23:03.341Z,94304.09
2019-05-10T20:28:07.898Z,94314.73
2019-05-10T20:33:12.629Z,94309.37
2019-05-10T20:38:17.253Z,94317.11
2019-05-10T20:43:21.946Z,94314.89
2019-05-10T20:48:26.534Z,94321.09
2019-05-10T20:53:31.277Z,94326.23
2019-05-10T20:58:35.857Z,94339.49
2019-05-10T21:03:40.498Z,94339.80
2019-05-10T21:08:45.066Z,94339.49
2019-05-10T21:13:49.834Z,94337.23
2019-05-10T21:18:54.579Z,94346.33
2019-05-10T21:23:59.120Z,94356.72
2019-05-10T21:29:04.485Z,94359.42
2019-05-10T21:34:10.245Z,94358.27
2019-05-10T21:39:15.084Z,94354.63
2019-05-10T21:44:19.733Z,94361.84
2019-05-10T21:49:24.457Z,94353.39
2019-05-10T21:54:29.147Z,94359.72
2019-05-10T21:59:33.796Z,94365.44
2019-05-10T22:04:38.280Z,94368.27
2019-05-10T22:09:42.991Z,94370.89
2019-05-10T22:14:47.482Z,94376.42
2019-05-10T22:19:52.050Z,94371.45
2019-05-10T22:24:56.774Z,94376.39
2019-05-10T22:30:01.262Z,94382.28
2019-05-10T22:35:07.179Z,94383.12
2019-05-10T22:40:11.882Z,94379.62
2019-05-10T22:45:16.595Z,94374.48
2019-05-10T22:50:21.241Z,94381.51
2019-05-10T22:55:25.916Z,94379.28
2019-05-10T23:00:30.727Z,94387.42
2019-05-10T23:05:35.365Z,94388.06
2019-05-10T23:10:40.145Z,94388.75
2019-05-10T23:15:44.717Z,94387.39
2019-05-10T23:20:49.291Z,94379.09
2019-05-10T23:25:53.909Z,94380.62
2019-05-10T23:30:58.451Z,94382.48
2019-05-10T23:36:03.154Z,94385.28
2019-05-10T23:41:07.931Z,94391.48
2019-05-10T23:46:12.717Z,94390.03
2019-05-10T23:51:17.518Z,94394.36
2019-05-10T23:56:22.434Z,94387.72
